首页
METAR-TAF:

METAR-TAF

机场 :

密尔沃基, 威斯康辛州, 美国

纬度: 42-57-18N, 经度: 087-54-16W, 海拔: 220米

当前天气观测

该预报发布于1小时和12分钟前的07:52 UTC
风速7节,风向南转西南
温度 23°C
湿度 69%
气压 1014 hPa
能見度: 16.1公里
天空无云

METAR: KMKE 160752Z 20007KT 10SM CLR 23/17 A2994 RMK AO2 SLP131 T02280172 $

时间: 04:04 (09:04 UTC)

预报

该预报发布于3小时和44分钟前的05:20 UTC
预报有效从16日的 06点(UTC)到 17日的 12点(UTC)
风速9节,风向西南
能見度: 10公里
散云层高于5000英尺
多云层高于15000英尺
从 16日的 1200点(UTC)
风速7节,风向南转西南
能見度: 10公里
散云层高于3500英尺
多云层高于25000英尺
从 16日的 1400点(UTC)
风速7节,风向南转西南
能見度: 10公里
散云层高于2500英尺
从 16日的 1700点(UTC)
风速8节,风向南转南东
能見度: 10公里
散云层高于4500英尺
从 17日的 0200点(UTC)
风速5节,风向
能見度: 10公里
多云层高于7000英尺

TAF: KMKE 160520Z 1606/1712 23009KT P6SM SCT050 BKN150 FM161200 21007KT P6SM SCT035 BKN250 FM161400 20007KT P6SM SCT025 FM161700 15008KT P6SM SCT045 FM170200 18005KT P6SM BKN070

超过4000个机场的气象观测和天气预报(METAR&TAF报告)。

可查询的气象台以黄色和红色小点在地图上表示。

将鼠标移到小点上方,可查看气象台名称。

然后点击查看天气观测和预报。

如需切换地图:点击带黑十字的绿色按钮放大地图;点击带横线的绿色按钮缩小地图;或者点击绿色箭头查看邻近地区的地图。


METAR-TAF: